createdAt,value
2024-02-29T00:02:32.064Z,9.15
2024-02-29T00:07:53.782Z,9.18
2024-02-29T00:13:15.566Z,9.19
2024-02-29T00:18:37.452Z,9.19
2024-02-29T00:23:59.227Z,9.19
2024-02-29T00:29:20.986Z,9.21
2024-02-29T00:34:42.824Z,9.25
2024-02-29T00:40:05.077Z,9.13
2024-02-29T00:45:26.927Z,9.15
2024-02-29T00:50:48.889Z,9.16
2024-02-29T00:56:10.959Z,9.16
2024-02-29T01:01:32.844Z,9.12
2024-02-29T01:06:54.776Z,9.11
2024-02-29T01:12:16.574Z,9.14
2024-02-29T01:17:38.856Z,9.05
2024-02-29T01:23:01.052Z,8.94
2024-02-29T01:28:22.827Z,9.15
2024-02-29T01:33:44.849Z,9.17
2024-02-29T01:39:06.690Z,9.22
2024-02-29T01:44:28.974Z,9.04
2024-02-29T01:49:51.557Z,8.92
2024-02-29T01:55:13.934Z,8.81
2024-02-29T02:00:35.744Z,8.82
2024-02-29T02:05:57.476Z,8.79
2024-02-29T02:11:19.349Z,8.70
2024-02-29T02:16:41.821Z,8.72
2024-02-29T02:22:03.750Z,8.87
2024-02-29T02:27:25.579Z,8.94
2024-02-29T02:32:47.424Z,9.01
2024-02-29T02:38:09.225Z,8.90
2024-02-29T02:43:30.955Z,8.76
2024-02-29T02:48:52.741Z,8.93
2024-02-29T02:54:14.606Z,8.92
2024-02-29T02:59:36.409Z,8.99
2024-02-29T03:04:58.358Z,8.99
2024-02-29T03:10:20.242Z,8.89
2024-02-29T03:15:42.033Z,9.01
2024-02-29T03:21:04.930Z,8.69
2024-02-29T03:26:26.755Z,8.76
2024-02-29T03:31:48.571Z,8.69
2024-02-29T03:37:10.406Z,8.69
2024-02-29T03:42:33.072Z,8.72
2024-02-29T03:47:54.919Z,8.75
2024-02-29T03:53:16.725Z,8.60
2024-02-29T03:58:38.515Z,8.75
2024-02-29T04:04:00.401Z,8.81
2024-02-29T04:09:22.199Z,8.72
2024-02-29T04:14:43.943Z,8.78
2024-02-29T04:20:06.445Z,8.69
2024-02-29T04:25:28.191Z,8.54
2024-02-29T04:30:50.041Z,8.50
2024-02-29T04:36:11.926Z,8.48
2024-02-29T04:41:33.690Z,8.41
2024-02-29T04:46:55.445Z,8.30
2024-02-29T04:52:17.539Z,8.44
2024-02-29T04:57:39.395Z,8.53
2024-02-29T05:03:01.223Z,8.54
2024-02-29T05:08:22.997Z,8.56
2024-02-29T05:13:44.760Z,8.55
2024-02-29T05:19:06.544Z,8.66
2024-02-29T05:24:28.303Z,8.79
2024-02-29T05:29:50.051Z,8.84
2024-02-29T05:35:11.830Z,8.86
2024-02-29T05:40:33.692Z,8.84
2024-02-29T05:45:55.481Z,8.61
2024-02-29T05:51:17.259Z,8.79
2024-02-29T05:56:38.994Z,8.83
2024-02-29T06:02:00.921Z,8.95
2024-02-29T06:07:22.920Z,8.93
2024-02-29T06:12:44.716Z,9.06
2024-02-29T06:18:06.650Z,9.17
2024-02-29T06:23:28.453Z,9.11
2024-02-29T06:28:50.186Z,9.01
2024-02-29T06:34:11.960Z,9.23
2024-02-29T06:39:34.437Z,9.36
2024-02-29T06:44:56.268Z,9.52
2024-02-29T06:50:18.118Z,9.49
